Time;durP1;ratioP1;P1;durP2;ratioP2;P2;SDS_P1;SDS_P2;PMS_P1;PMS_P2;Temp;Humidity;BMP_temperature;BMP_pressure;BME280_temperature;BME280_humidity;BME280_pressure;Samples;Min_cycle;Max_cycle;Signal;HPM_P1;HPM_P2
2022/11/08 00:01:30;;;;;;;4.53;2.43;;;13.80;99.90;;;;;;5012224;28;20536;-72
2022/11/08 00:03:09;;;;;;;4.60;1.93;;;13.80;99.90;;;;;;5033591;28;20978;-73
2022/11/08 00:14:00;;;;;;;4.53;2.80;;;13.70;99.90;;;;;;5021139;28;21028;-74
2022/11/08 00:16:33;;;;;;;4.07;2.10;;;13.70;99.90;;;;;;5021728;28;20459;-72
2022/11/08 00:19:00;;;;;;;5.00;2.30;;;13.80;99.90;;;;;;5031843;28;20460;-73
2022/11/08 00:21:26;;;;;;;8.30;2.60;;;13.80;99.90;;;;;;5017441;28;20467;-73
2022/11/08 00:23:54;;;;;;;4.53;2.40;;;13.80;99.90;;;;;;5021987;28;20440;-73
2022/11/08 00:26:22;;;;;;;7.73;2.63;;;13.70;99.90;;;;;;4997346;28;20799;-73
2022/11/08 00:28:48;;;;;;;8.30;2.03;;;13.80;99.90;;;;;;5002412;28;20464;-73
2022/11/08 00:31:14;;;;;;;4.30;2.57;;;13.80;99.90;;;;;;5013899;28;20476;-72
2022/11/08 00:33:48;;;;;;;3.90;2.70;;;13.80;99.90;;;;;;5030111;28;20424;-72
2022/11/08 00:36:17;;;;;;;4.90;2.00;;;13.80;99.90;;;;;;4998292;28;20395;-73
2022/11/08 00:38:43;;;;;;;2.90;1.97;;;13.80;99.90;;;;;;5014774;28;20455;-72
2022/11/08 00:41:12;;;;;;;5.20;2.10;;;13.80;99.90;;;;;;5013514;28;20410;-75
2022/11/08 00:43:38;;;;;;;6.83;2.73;;;13.80;99.90;;;;;;5047711;28;20793;-73
2022/11/08 00:46:04;;;;;;;5.47;2.50;;;13.80;99.90;;;;;;5029621;28;20467;-74
2022/11/08 00:48:33;;;;;;;6.07;2.00;;;13.80;99.90;;;;;;5049533;28;20464;-74
2022/11/08 00:51:04;;;;;;;4.90;2.20;;;13.80;99.90;;;;;;5033222;28;20946;-73
2022/11/08 00:53:35;;;;;;;3.57;2.10;;;13.80;99.90;;;;;;5034709;28;20406;-73
2022/11/08 00:56:12;;;;;;;4.40;2.40;;;13.80;99.90;;;;;;5018250;28;20417;-73
2022/11/08 00:58:45;;;;;;;5.10;2.17;;;13.80;99.90;;;;;;5048595;28;20973;-73
2022/11/08 01:01:13;;;;;;;5.00;2.40;;;13.80;99.90;;;;;;5034138;28;20445;-73
2022/11/08 01:03:42;;;;;;;5.77;2.40;;;13.80;99.90;;;;;;5001398;28;20803;-73
2022/11/08 01:06:13;;;;;;;4.00;2.33;;;13.80;99.90;;;;;;5033640;28;20425;-75
2022/11/08 01:08:42;;;;;;;8.40;2.20;;;13.80;99.90;;;;;;5025529;28;20442;-73
2022/11/08 01:11:12;;;;;;;4.03;2.33;;;13.80;99.90;;;;;;5016881;28;20499;-74
2022/11/08 01:13:42;;;;;;;6.33;2.27;;;13.80;99.90;;;;;;5026279;28;20421;-73
2022/11/08 01:16:14;;;;;;;4.70;2.53;;;13.70;99.90;;;;;;5054478;28;20777;-74
2022/11/08 01:18:56;;;;;;;4.17;2.13;;;13.70;99.90;;;;;;5036498;28;20461;-73
2022/11/08 01:21:25;;;;;;;5.40;2.10;;;13.70;99.90;;;;;;5036319;28;20985;-74
2022/11/08 01:23:54;;;;;;;4.20;2.10;;;13.70;99.90;;;;;;5025296;28;20434;-74
2022/11/08 01:26:25;;;;;;;4.80;2.10;;;13.70;99.90;;;;;;5034402;28;20904;-73
2022/11/08 01:28:53;;;;;;;4.70;2.40;;;13.70;99.90;;;;;;5042967;28;20457;-73
2022/11/08 01:31:28;;;;;;;3.87;2.20;;;13.80;99.90;;;;;;5054001;28;20440;-73
2022/11/08 01:33:57;;;;;;;8.73;2.27;;;13.70;99.90;;;;;;5043565;28;20942;-73
2022/11/08 01:36:26;;;;;;;4.37;2.30;;;13.80;99.90;;;;;;5013450;28;20440;-72
2022/11/08 01:38:56;;;;;;;4.03;2.10;;;13.70;99.90;;;;;;5046743;28;20507;-72
2022/11/08 01:41:26;;;;;;;3.90;2.30;;;13.70;99.90;;;;;;5020774;28;20471;-73
2022/11/08 01:43:58;;;;;;;4.10;2.20;;;13.70;99.90;;;;;;5043989;28;20777;-73
2022/11/08 01:46:31;;;;;;;3.30;2.33;;;13.70;99.90;;;;;;5003412;28;20429;-72
2022/11/08 01:49:09;;;;;;;4.50;2.30;;;13.70;99.90;;;;;;5046536;28;20446;-72
2022/11/08 01:51:44;;;;;;;3.57;1.70;;;13.70;99.90;;;;;;5031892;28;20424;-73
2022/11/08 01:54:25;;;;;;;3.70;1.77;;;13.70;99.90;;;;;;5019131;28;20449;-75
2022/11/08 01:56:51;;;;;;;2.60;2.00;;;13.70;99.90;;;;;;5042025;28;20790;-72
2022/11/08 01:59:18;;;;;;;4.33;2.30;;;13.70;99.90;;;;;;5006896;28;20462;-72
2022/11/08 02:01:46;;;;;;;5.97;2.23;;;13.70;99.90;;;;;;5019284;28;20454;-72
2022/11/08 02:04:14;;;;;;;3.80;1.90;;;13.70;99.90;;;;;;5036402;28;20768;-72
2022/11/08 02:06:42;;;;;;;4.03;2.00;;;13.70;99.90;;;;;;5033376;28;20521;-73
2022/11/08 02:09:14;;;;;;;4.30;2.00;;;13.70;99.90;;;;;;5014641;28;20553;-73
2022/11/08 02:11:40;;;;;;;4.10;1.97;;;13.70;99.90;;;;;;5034111;28;20407;-73
2022/11/08 02:14:07;;;;;;;5.73;1.80;;;13.70;99.90;;;;;;5019001;28;20528;-73
2022/11/08 02:16:33;;;;;;;2.97;2.00;;;13.70;99.90;;;;;;5026865;28;20425;-74
2022/11/08 02:19:04;;;;;;;2.70;1.70;;;13.70;99.90;;;;;;5015535;28;20528;-73
2022/11/08 02:21:43;;;;;;;4.10;2.20;;;13.70;99.90;;;;;;5040833;28;20524;-73
2022/11/08 02:24:10;;;;;;;2.87;1.90;;;13.70;99.90;;;;;;5015487;28;20511;-73
2022/11/08 02:26:37;;;;;;;4.60;1.90;;;13.70;99.90;;;;;;5040554;28;20437;-73
2022/11/08 02:29:36;;;;;;;2.70;1.60;;;13.70;99.90;;;;;;5034383;28;20842;-73
2022/11/08 02:32:05;;;;;;;5.17;1.83;;;13.70;99.90;;;;;;5020374;28;20453;-73
2022/11/08 02:34:40;;;;;;;3.93;1.90;;;13.70;99.90;;;;;;5018887;28;20956;-73
2022/11/08 02:37:12;;;;;;;3.17;1.77;;;13.70;99.90;;;;;;4999315;28;20807;-73
2022/11/08 02:39:42;;;;;;;2.40;1.63;;;13.70;99.90;;;;;;5035135;28;20447;-74
2022/11/08 02:42:12;;;;;;;3.60;1.80;;;13.70;99.90;;;;;;4996876;28;20515;-73
2022/11/08 02:44:43;;;;;;;2.20;1.97;;;13.70;99.90;;;;;;5033865;28;20524;-74
2022/11/08 02:47:11;;;;;;;1.80;1.50;;;13.70;99.90;;;;;;4999034;28;20404;-73
2022/11/08 02:49:40;;;;;;;4.57;3.03;;;13.70;99.90;;;;;;5033955;28;20453;-74
2022/11/08 02:52:06;;;;;;;3.10;2.00;;;13.70;99.90;;;;;;4996616;28;20444;-75
2022/11/08 02:54:37;;;;;;;2.90;2.03;;;13.70;99.90;;;;;;5016684;28;20414;-73
2022/11/08 02:57:07;;;;;;;4.43;1.73;;;13.70;99.90;;;;;;5018339;28;20521;-73
2022/11/08 02:59:33;;;;;;;4.17;2.27;;;13.70;99.90;;;;;;5016708;28;20458;-72
2022/11/08 03:02:04;;;;;;;3.37;1.53;;;13.70;99.90;;;;;;5048616;28;20519;-73
2022/11/08 03:04:29;;;;;;;3.40;2.10;;;13.70;99.90;;;;;;4986860;28;20486;-73
2022/11/08 03:06:55;;;;;;;3.30;1.80;;;13.70;99.90;;;;;;5049433;28;20436;-75
2022/11/08 03:09:26;;;;;;;3.83;1.93;;;13.70;99.90;;;;;;4998239;28;20948;-73
2022/11/08 03:11:52;;;;;;;3.63;1.70;;;13.70;99.90;;;;;;5016661;28;20429;-73
2022/11/08 03:14:18;;;;;;;3.97;1.77;;;13.70;99.90;;;;;;5030521;28;20542;-73
2022/11/08 03:16:46;;;;;;;2.70;1.83;;;13.70;99.90;;;;;;5042407;28;20495;-73
2022/11/08 03:19:17;;;;;;;3.80;1.90;;;13.70;99.90;;;;;;4998402;28;20623;-73
2022/11/08 03:21:45;;;;;;;6.83;3.17;;;13.60;99.90;;;;;;5039726;28;20554;-73
2022/11/08 03:24:11;;;;;;;3.33;2.23;;;13.60;99.90;;;;;;5034939;28;20544;-74
2022/11/08 03:26:37;;;;;;;4.17;2.40;;;13.60;99.90;;;;;;5018028;28;20425;-73
2022/11/08 03:29:03;;;;;;;3.23;2.00;;;13.60;99.90;;;;;;5032820;28;20453;-73
2022/11/08 03:31:29;;;;;;;4.50;1.90;;;13.60;99.90;;;;;;5034322;28;20885;-73
2022/11/08 03:33:57;;;;;;;3.70;2.00;;;13.60;99.90;;;;;;5017760;28;20205;-73
2022/11/08 03:36:24;;;;;;;4.80;2.33;;;13.60;99.90;;;;;;5051877;28;20398;-73
2022/11/08 03:38:52;;;;;;;3.37;1.83;;;13.60;99.90;;;;;;4994971;28;20449;-76
2022/11/08 03:41:21;;;;;;;3.77;2.73;;;13.60;99.90;;;;;;5031955;28;20455;-73
2022/11/08 03:43:55;;;;;;;6.10;1.90;;;13.60;99.90;;;;;;5047593;28;20494;-73
2022/11/08 03:46:24;;;;;;;6.43;2.30;;;13.60;99.90;;;;;;5014125;28;20401;-73
2022/11/08 03:48:50;;;;;;;5.10;2.50;;;13.60;99.90;;;;;;5047170;28;20449;-76
2022/11/08 03:51:16;;;;;;;6.73;2.50;;;13.60;99.90;;;;;;5033711;28;20421;-73
2022/11/08 03:53:46;;;;;;;6.30;2.10;;;13.60;99.90;;;;;;5002354;28;20447;-73
2022/11/08 03:56:17;;;;;;;6.07;2.20;;;13.60;99.90;;;;;;5034020;28;20391;-73
2022/11/08 03:58:48;;;;;;;3.50;2.33;;;13.60;99.90;;;;;;5026321;28;20568;-75
2022/11/08 04:01:14;;;;;;;4.10;2.57;;;13.60;99.90;;;;;;5013675;28;20444;-73
2022/11/08 04:03:40;;;;;;;7.27;3.17;;;13.60;99.90;;;;;;5032990;28;20425;-73
2022/11/08 04:06:11;;;;;;;3.30;2.10;;;13.60;99.90;;;;;;5049784;28;20943;-73
2022/11/08 04:08:41;;;;;;;2.93;1.90;;;13.60;99.90;;;;;;5002692;28;20452;-72
2022/11/08 04:16:39;;;;;;;3.60;2.50;;;13.60;99.90;;;;;;5022424;28;20459;-73
2022/11/08 04:21:58;;;;;;;3.40;1.93;;;13.60;99.90;;;;;;5036289;28;20468;-74
2022/11/08 04:24:26;;;;;;;4.60;2.07;;;13.60;99.90;;;;;;5054917;28;20468;-73
2022/11/08 04:26:54;;;;;;;5.40;2.50;;;13.60;99.90;;;;;;5036281;28;20446;-73
2022/11/08 04:29:25;;;;;;;5.67;2.47;;;13.60;99.90;;;;;;5005424;28;20444;-73
2022/11/08 04:31:56;;;;;;;4.23;2.30;;;13.60;99.90;;;;;;5035961;28;20456;-72
2022/11/08 04:34:24;;;;;;;6.17;2.53;;;13.60;99.90;;;;;;5000120;28;20436;-73
2022/11/08 04:36:50;;;;;;;4.00;2.40;;;13.60;99.90;;;;;;5018601;28;20570;-73
2022/11/08 04:39:21;;;;;;;5.53;2.40;;;13.60;99.90;;;;;;5009146;28;20459;-73
2022/11/08 04:41:47;;;;;;;3.43;1.97;;;13.60;99.90;;;;;;5035758;28;20448;-73
2022/11/08 04:44:17;;;;;;;4.70;2.40;;;13.60;99.90;;;;;;5052135;28;20442;-73
2022/11/08 04:46:45;;;;;;;3.93;2.10;;;13.60;99.90;;;;;;5063103;28;20438;-75
2022/11/08 04:49:11;;;;;;;7.83;2.20;;;13.60;99.90;;;;;;5054094;28;20430;-72
2022/11/08 04:51:37;;;;;;;4.73;2.90;;;13.60;99.90;;;;;;5022605;28;20197;-72
2022/11/08 04:54:06;;;;;;;3.40;2.20;;;13.50;99.90;;;;;;5034439;28;20432;-73
2022/11/08 04:56:32;;;;;;;2.80;1.87;;;13.60;99.90;;;;;;5004317;28;20563;-74
2022/11/08 04:59:03;;;;;;;3.83;1.80;;;13.50;99.90;;;;;;5017211;28;20472;-73
2022/11/08 05:01:30;;;;;;;3.17;2.03;;;13.50;99.90;;;;;;5017017;28;20947;-72
2022/11/08 05:03:58;;;;;;;5.17;1.93;;;13.50;99.90;;;;;;5036809;28;20402;-73
2022/11/08 05:06:30;;;;;;;6.43;2.10;;;13.50;99.90;;;;;;5026973;28;20473;-73
2022/11/08 05:08:59;;;;;;;3.73;2.33;;;13.50;99.90;;;;;;5017887;28;20452;-73
2022/11/08 05:11:28;;;;;;;5.33;2.23;;;13.50;99.90;;;;;;5035026;28;20428;-74
2022/11/08 05:13:55;;;;;;;2.40;1.93;;;13.50;99.90;;;;;;5024561;28;20545;-75
2022/11/08 05:16:32;;;;;;;3.10;2.20;;;13.50;99.90;;;;;;5054798;28;20899;-73
2022/11/08 05:18:58;;;;;;;6.07;2.07;;;13.50;99.90;;;;;;5035458;28;20448;-75
2022/11/08 05:24:15;;;;;;;4.50;2.50;;;13.50;99.90;;;;;;5005529;28;20475;-74
2022/11/08 05:26:43;;;;;;;4.37;2.20;;;13.50;99.90;;;;;;5050395;28;20424;-75
2022/11/08 05:29:10;;;;;;;3.70;1.73;;;13.50;99.90;;;;;;5010293;28;20456;-73
2022/11/08 05:31:38;;;;;;;2.57;2.00;;;13.50;99.90;;;;;;5052060;28;20422;-73
2022/11/08 05:34:06;;;;;;;3.33;2.17;;;13.50;99.90;;;;;;5017309;28;20512;-74
2022/11/08 05:36:34;;;;;;;2.60;1.67;;;13.50;99.90;;;;;;5024070;28;20411;-73
2022/11/08 05:39:02;;;;;;;5.30;1.90;;;13.50;99.90;;;;;;5022016;28;20512;-74
2022/11/08 05:41:28;;;;;;;6.43;2.20;;;13.50;99.90;;;;;;5051234;28;20458;-74
2022/11/08 05:43:55;;;;;;;3.93;2.10;;;13.50;99.90;;;;;;5023164;28;20423;-73
2022/11/08 05:46:22;;;;;;;2.63;2.13;;;13.50;99.90;;;;;;5018388;28;20445;-73
2022/11/08 05:48:48;;;;;;;4.17;2.40;;;13.50;99.90;;;;;;5045654;28;20483;-74
2022/11/08 05:51:15;;;;;;;3.77;1.70;;;13.50;99.90;;;;;;5002552;28;20432;-70
2022/11/08 05:53:41;;;;;;;2.70;2.00;;;13.50;99.90;;;;;;5034734;28;20487;-74
2022/11/08 05:56:10;;;;;;;3.50;2.10;;;13.50;99.90;;;;;;5018531;28;20419;-73
2022/11/08 05:58:36;;;;;;;4.80;2.43;;;13.50;99.90;;;;;;5034889;28;20434;-74
2022/11/08 06:01:08;;;;;;;3.50;2.07;;;13.50;99.90;;;;;;5051362;28;20462;-74
2022/11/08 06:03:35;;;;;;;2.90;1.87;;;13.50;99.90;;;;;;5054016;28;20440;-74
2022/11/08 06:06:19;;;;;;;4.57;2.23;;;13.50;99.90;;;;;;5020462;28;21010;-73
2022/11/08 06:08:50;;;;;;;9.40;2.30;;;13.50;99.90;;;;;;5052014;28;20478;-74
2022/11/08 06:11:22;;;;;;;2.73;2.10;;;13.40;99.90;;;;;;5041676;28;20453;-73
2022/11/08 06:13:48;;;;;;;3.60;2.20;;;13.50;99.90;;;;;;5034901;28;20421;-74
2022/11/08 06:16:16;;;;;;;3.27;2.10;;;13.40;99.90;;;;;;5017431;28;20420;-73
2022/11/08 06:18:43;;;;;;;3.60;2.27;;;13.40;99.90;;;;;;5035294;28;20843;-74
2022/11/08 06:21:14;;;;;;;2.40;2.17;;;13.50;99.90;;;;;;5018223;28;20439;-73
2022/11/08 06:23:41;;;;;;;3.00;2.20;;;13.50;99.90;;;;;;5034716;28;20469;-75
2022/11/08 06:26:09;;;;;;;4.33;2.30;;;13.40;99.90;;;;;;5032998;28;20492;-73
2022/11/08 06:28:37;;;;;;;2.83;2.33;;;13.40;99.90;;;;;;5024777;28;20530;-74
2022/11/08 06:31:05;;;;;;;4.73;2.10;;;13.40;99.90;;;;;;5004027;28;20464;-74
2022/11/08 06:33:33;;;;;;;3.07;2.30;;;13.40;99.90;;;;;;4987745;28;20430;-74
2022/11/08 06:35:59;;;;;;;6.43;2.30;;;13.40;99.90;;;;;;4999293;28;20430;-74
2022/11/08 06:38:25;;;;;;;2.60;2.13;;;13.40;99.90;;;;;;5002585;28;20812;-73
2022/11/08 06:40:51;;;;;;;5.57;2.50;;;13.40;99.90;;;;;;5035297;28;20406;-76
2022/11/08 06:43:19;;;;;;;3.77;1.93;;;13.40;99.90;;;;;;5029196;28;20448;-73
2022/11/08 06:45:46;;;;;;;3.13;2.00;;;13.40;99.90;;;;;;5018686;28;20478;-77
2022/11/08 06:48:11;;;;;;;4.90;2.17;;;13.40;99.90;;;;;;5002165;28;20455;-73
2022/11/08 06:50:37;;;;;;;4.30;1.90;;;13.40;99.90;;;;;;5034463;28;20437;-74
2022/11/08 06:53:09;;;;;;;3.20;2.07;;;13.40;99.90;;;;;;5052332;28;20408;-74
2022/11/08 06:55:35;;;;;;;4.53;2.00;;;13.40;99.90;;;;;;5034967;28;20466;-74
2022/11/08 06:58:02;;;;;;;3.13;2.43;;;13.40;99.90;;;;;;5033726;28;20487;-74
2022/11/08 07:00:29;;;;;;;2.80;1.97;;;13.40;99.90;;;;;;5001362;28;20425;-74
2022/11/08 07:02:57;;;;;;;2.60;2.10;;;13.40;99.90;;;;;;5034371;28;20445;-75
2022/11/08 07:05:24;;;;;;;3.33;2.10;;;13.40;99.90;;;;;;5018155;28;20414;-75
2022/11/08 07:07:52;;;;;;;6.50;2.43;;;13.40;99.90;;;;;;5034325;28;20785;-73
2022/11/08 07:10:24;;;;;;;2.23;1.90;;;13.40;99.90;;;;;;5034312;28;20969;-74
2022/11/08 07:12:58;;;;;;;2.63;2.00;;;13.40;99.90;;;;;;5034223;28;20437;-77
2022/11/08 07:15:24;;;;;;;3.00;1.70;;;13.40;99.90;;;;;;5017611;28;20533;-77
2022/11/08 07:18:04;;;;;;;2.60;1.80;;;13.40;99.90;;;;;;5019292;28;20853;-77
2022/11/08 07:20:33;;;;;;;4.13;2.30;;;13.40;99.90;;;;;;5034476;28;20442;-77
2022/11/08 07:23:00;;;;;;;3.67;1.73;;;13.40;99.90;;;;;;5033896;28;20500;-78
2022/11/08 07:25:27;;;;;;;4.70;1.87;;;13.40;99.90;;;;;;5017726;28;20478;-78
2022/11/08 07:27:59;;;;;;;3.57;2.27;;;13.40;99.90;;;;;;5016952;28;21716;-77
2022/11/08 07:30:30;;;;;;;2.80;1.80;;;13.40;99.90;;;;;;5017444;28;20507;-77
2022/11/08 07:32:58;;;;;;;2.73;1.90;;;13.40;99.90;;;;;;5051789;28;20396;-76
2022/11/08 07:35:26;;;;;;;5.00;2.30;;;13.40;99.90;;;;;;5017788;28;20940;-78
2022/11/08 07:37:54;;;;;;;4.23;2.30;;;13.40;99.90;;;;;;5051708;28;20424;-77
2022/11/08 07:40:21;;;;;;;4.37;1.90;;;13.40;99.90;;;;;;5033938;28;20587;-76
2022/11/08 07:42:49;;;;;;;4.50;2.30;;;13.40;99.90;;;;;;5051908;28;20453;-76
2022/11/08 07:45:15;;;;;;;3.47;1.60;;;13.40;99.90;;;;;;5034440;28;20421;-76
2022/11/08 07:47:43;;;;;;;3.60;2.17;;;13.40;99.90;;;;;;5051772;28;20911;-76
2022/11/08 07:50:09;;;;;;;3.87;1.70;;;13.40;99.90;;;;;;5034136;28;20488;-76
2022/11/08 07:52:37;;;;;;;1.97;1.77;;;13.40;99.90;;;;;;5017422;28;20429;-76
2022/11/08 07:55:03;;;;;;;1.83;1.53;;;13.40;99.90;;;;;;5035413;28;20464;-76
2022/11/08 07:57:30;;;;;;;2.10;1.90;;;13.40;99.90;;;;;;5021660;28;20465;-76
2022/11/08 07:59:55;;;;;;;4.07;2.50;;;13.40;99.90;;;;;;5035520;28;20464;-76
2022/11/08 08:02:23;;;;;;;3.13;1.67;;;13.40;99.90;;;;;;5001867;28;20584;-76
2022/11/08 08:04:50;;;;;;;2.83;1.90;;;13.50;99.90;;;;;;5035642;28;20782;-76
2022/11/08 08:07:16;;;;;;;1.97;1.77;;;13.50;99.90;;;;;;5018263;28;20423;-76
2022/11/08 08:09:44;;;;;;;3.30;1.73;;;13.50;99.90;;;;;;5035830;28;20428;-76
2022/11/08 08:12:12;;;;;;;2.87;2.00;;;13.50;99.90;;;;;;5001783;28;20418;-76
2022/11/08 08:14:43;;;;;;;2.60;2.00;;;13.50;99.90;;;;;;5001680;28;20407;-76
2022/11/08 08:17:11;;;;;;;2.13;1.33;;;13.50;99.90;;;;;;5001499;28;20419;-76
2022/11/08 08:19:39;;;;;;;2.17;1.57;;;13.50;99.90;;;;;;5017532;28;20846;-76
2022/11/08 08:22:05;;;;;;;4.43;2.10;;;13.50;99.90;;;;;;5017734;28;20470;-76
2022/11/08 08:24:34;;;;;;;3.77;2.03;;;13.50;99.90;;;;;;4985343;28;20442;-76
2022/11/08 08:26:59;;;;;;;2.60;1.90;;;13.50;99.90;;;;;;5035388;28;20425;-76
2022/11/08 08:29:28;;;;;;;2.30;2.03;;;13.50;99.90;;;;;;5028870;28;20457;-76
2022/11/08 08:31:54;;;;;;;2.77;1.70;;;13.50;99.90;;;;;;5037531;28;20408;-76
2022/11/08 08:34:21;;;;;;;2.77;1.60;;;13.50;99.90;;;;;;5037286;28;20410;-76
2022/11/08 08:36:47;;;;;;;3.80;2.20;;;13.50;99.90;;;;;;5020652;28;20430;-76
2022/11/08 08:39:16;;;;;;;1.87;1.50;;;13.50;99.90;;;;;;5037790;28;20441;-76
2022/11/08 08:41:42;;;;;;;3.47;1.80;;;13.50;99.90;;;;;;5037517;28;20432;-76
2022/11/08 08:44:09;;;;;;;3.20;1.80;;;13.50;99.90;;;;;;5031788;28;20434;-76
2022/11/08 08:46:35;;;;;;;2.57;1.90;;;13.50;99.90;;;;;;5017649;28;20554;-76
2022/11/08 08:49:04;;;;;;;4.80;1.97;;;13.50;99.90;;;;;;5017360;28;20435;-76
2022/11/08 08:51:32;;;;;;;3.17;1.60;;;13.50;99.90;;;;;;5017832;28;20418;-76
2022/11/08 08:53:58;;;;;;;2.40;1.53;;;13.50;99.90;;;;;;5017707;28;20405;-76
2022/11/08 08:56:24;;;;;;;2.70;1.60;;;13.50;99.90;;;;;;5035120;28;20403;-76
2022/11/08 08:58:50;;;;;;;4.50;2.13;;;13.50;99.90;;;;;;4989269;28;20564;-76
2022/11/08 09:01:16;;;;;;;3.37;2.10;;;13.50;99.90;;;;;;5000925;28;20470;-76
2022/11/08 09:03:42;;;;;;;2.40;1.50;;;13.50;99.90;;;;;;5035007;28;20441;-76
2022/11/08 09:06:09;;;;;;;2.50;1.97;;;13.50;99.90;;;;;;5016370;28;20754;-76
2022/11/08 09:08:35;;;;;;;3.40;2.13;;;13.50;99.90;;;;;;5034669;28;20848;-76
2022/11/08 09:11:01;;;;;;;3.00;1.93;;;13.50;99.90;;;;;;5016932;28;20493;-76
2022/11/08 09:13:32;;;;;;;3.30;1.93;;;13.50;99.90;;;;;;5001010;28;20423;-76
2022/11/08 09:16:02;;;;;;;5.60;1.60;;;13.60;99.90;;;;;;5034691;28;20425;-76
2022/11/08 09:18:31;;;;;;;4.83;1.90;;;13.60;99.90;;;;;;5034606;28;20432;-76
2022/11/08 09:20:59;;;;;;;1.60;1.50;;;13.50;99.90;;;;;;5016508;28;20497;-76
2022/11/08 09:23:25;;;;;;;4.37;2.37;;;13.50;99.90;;;;;;5016820;28;20471;-76
2022/11/08 09:25:59;;;;;;;4.17;1.87;;;13.60;99.90;;;;;;5000706;28;20802;-76
2022/11/08 09:28:28;;;;;;;3.27;2.10;;;13.60;99.90;;;;;;5034587;28;20443;-76
2022/11/08 09:30:55;;;;;;;2.40;1.77;;;13.60;99.90;;;;;;5034337;28;20395;-76
2022/11/08 09:33:21;;;;;;;3.77;1.93;;;13.60;99.90;;;;;;5034462;28;20403;-76
2022/11/08 09:35:47;;;;;;;2.07;1.87;;;13.60;99.90;;;;;;5034336;28;20916;-76
2022/11/08 09:38:13;;;;;;;2.77;2.00;;;13.60;99.90;;;;;;5016735;28;20396;-76
2022/11/08 09:40:49;;;;;;;5.57;1.80;;;13.60;99.90;;;;;;5016465;28;20428;-76
2022/11/08 09:43:38;;;;;;;3.50;2.10;;;13.60;99.90;;;;;;4999969;28;20983;-76
2022/11/08 09:46:15;;;;;;;2.33;1.70;;;13.60;99.90;;;;;;5016502;28;20420;-76
2022/11/08 09:48:43;;;;;;;1.67;1.50;;;13.60;99.90;;;;;;5033961;28;20605;-76
2022/11/08 09:51:17;;;;;;;3.50;1.80;;;13.60;99.90;;;;;;5016074;28;20425;-76
2022/11/08 09:53:54;;;;;;;3.03;1.77;;;13.60;99.90;;;;;;5016255;28;20419;-76
2022/11/08 09:56:29;;;;;;;4.03;2.03;;;13.60;99.90;;;;;;5016434;28;20437;-76
2022/11/08 09:59:07;;;;;;;3.57;2.50;;;13.60;99.90;;;;;;5024702;28;20441;-76
2022/11/08 10:01:35;;;;;;;2.83;1.73;;;13.60;99.90;;;;;;5053474;28;20440;-76
2022/11/08 10:04:21;;;;;;;2.27;1.67;;;13.60;99.90;;;;;;5036498;28;20811;-76
2022/11/08 10:07:12;;;;;;;3.37;2.03;;;13.60;99.90;;;;;;5053715;28;20858;-76
2022/11/08 10:09:59;;;;;;;3.30;1.97;;;13.60;99.90;;;;;;5035492;28;20443;-76
2022/11/08 10:12:56;;;;;;;3.00;1.83;;;13.60;99.90;;;;;;5053329;28;20885;-76
2022/11/08 10:16:03;;;;;;;6.13;1.87;;;13.70;99.90;;;;;;5035655;28;20859;-76
2022/11/08 10:18:40;;;;;;;2.57;1.97;;;13.70;99.90;;;;;;5052570;28;20435;-76
2022/11/08 10:21:23;;;;;;;5.30;1.80;;;13.70;99.90;;;;;;5035620;28;20429;-76
2022/11/08 10:23:55;;;;;;;3.20;2.13;;;13.70;99.90;;;;;;5053079;28;20653;-76
2022/11/08 10:26:28;;;;;;;3.50;2.30;;;13.70;99.90;;;;;;5002539;28;20453;-75
2022/11/08 10:29:00;;;;;;;3.50;1.90;;;13.70;99.90;;;;;;5035129;28;20529;-76
2022/11/08 10:31:51;;;;;;;3.83;2.67;;;13.70;99.90;;;;;;5018045;28;20421;-75
2022/11/08 10:34:24;;;;;;;2.73;1.70;;;13.70;99.90;;;;;;5035443;28;20431;-76
2022/11/08 10:37:01;;;;;;;3.10;2.50;;;13.70;99.90;;;;;;5019179;28;20420;-76
2022/11/08 10:39:31;;;;;;;4.20;1.97;;;13.70;99.90;;;;;;5018797;28;20441;-76
2022/11/08 10:42:06;;;;;;;2.57;2.17;;;13.70;99.90;;;;;;5018848;28;20535;-76
2022/11/08 10:44:34;;;;;;;4.70;2.27;;;13.70;99.90;;;;;;5018854;28;20420;-76
2022/11/08 10:47:11;;;;;;;3.13;2.13;;;13.70;99.90;;;;;;5017012;28;20480;-75
2022/11/08 10:49:42;;;;;;;3.93;2.10;;;13.80;99.90;;;;;;5019232;28;20461;-76
2022/11/08 10:52:20;;;;;;;5.30;1.87;;;13.80;99.90;;;;;;5018601;28;20461;-76
2022/11/08 10:54:46;;;;;;;7.20;2.20;;;13.80;99.90;;;;;;5002319;28;20420;-76
2022/11/08 10:57:17;;;;;;;4.77;1.87;;;13.80;99.90;;;;;;5002247;28;20416;-75
2022/11/08 10:59:46;;;;;;;2.87;2.10;;;13.80;99.90;;;;;;4998603;28;20978;-76
2022/11/08 11:02:25;;;;;;;6.70;2.00;;;13.80;99.90;;;;;;4998666;28;20525;-76
2022/11/08 11:04:52;;;;;;;4.43;2.10;;;13.80;99.90;;;;;;5015016;28;20416;-76
2022/11/08 11:07:32;;;;;;;3.60;1.90;;;13.80;99.90;;;;;;5031286;28;20424;-76
2022/11/08 11:10:22;;;;;;;4.27;2.03;;;13.80;99.90;;;;;;4998647;28;20857;-76
2022/11/08 11:13:10;;;;;;;3.97;2.07;;;13.80;99.90;;;;;;5014852;28;20429;-76
2022/11/08 11:15:45;;;;;;;5.07;3.00;;;13.90;99.90;;;;;;5030837;28;20859;-76
2022/11/08 11:18:37;;;;;;;2.97;1.90;;;13.90;99.90;;;;;;5015027;28;20495;-76
2022/11/08 11:21:17;;;;;;;6.03;1.83;;;13.90;99.90;;;;;;4998312;28;20454;-74
2022/11/08 11:23:46;;;;;;;3.53;1.80;;;13.90;99.90;;;;;;5014653;28;20558;-76
2022/11/08 11:26:31;;;;;;;3.43;1.93;;;13.90;99.90;;;;;;4998495;28;20446;-76
2022/11/08 11:29:03;;;;;;;3.10;2.07;;;13.90;99.90;;;;;;5033123;28;20939;-75
2022/11/08 11:31:34;;;;;;;3.03;1.90;;;13.90;99.90;;;;;;5033901;28;20815;-76
2022/11/08 11:34:40;;;;;;;2.43;1.80;;;13.90;99.90;;;;;;5052474;28;20402;-76
2022/11/08 11:37:12;;;;;;;3.60;2.10;;;13.90;99.90;;;;;;5025137;28;20520;-75
2022/11/08 11:39:48;;;;;;;2.40;1.87;;;13.90;99.90;;;;;;5052188;28;21018;-76
2022/11/08 11:42:44;;;;;;;4.20;2.07;;;13.90;99.90;;;;;;5034240;28;20447;-76
2022/11/08 11:45:15;;;;;;;4.27;2.23;;;13.90;99.90;;;;;;5034547;28;20435;-76
2022/11/08 11:48:01;;;;;;;3.20;2.10;;;14.00;99.90;;;;;;5034326;28;20403;-75
2022/11/08 11:50:34;;;;;;;2.30;1.87;;;14.00;99.90;;;;;;5034183;28;20455;-76
2022/11/08 11:53:05;;;;;;;4.87;2.17;;;14.00;99.90;;;;;;5052202;28;20403;-76
2022/11/08 11:55:45;;;;;;;4.17;1.80;;;14.00;99.90;;;;;;5002280;28;20481;-75
2022/11/08 11:58:36;;;;;;;3.30;2.40;;;14.00;99.90;;;;;;5018340;28;20409;-75
2022/11/08 12:01:15;;;;;;;2.90;2.17;;;14.00;99.90;;;;;;5018438;28;20453;-75
2022/11/08 12:03:54;;;;;;;3.10;1.80;;;14.10;99.90;;;;;;5018607;28;20980;-75
2022/11/08 12:06:40;;;;;;;2.07;1.80;;;14.10;99.90;;;;;;5018367;28;20446;-75
2022/11/08 12:09:27;;;;;;;3.30;2.03;;;14.10;99.90;;;;;;5032095;28;20446;-75
2022/11/08 12:12:06;;;;;;;3.03;2.20;;;14.10;99.90;;;;;;5018218;28;20489;-75
2022/11/08 12:14:35;;;;;;;3.57;2.23;;;14.10;99.90;;;;;;5034785;28;20414;-76
2022/11/08 12:17:17;;;;;;;3.33;1.80;;;14.10;99.90;;;;;;5034498;28;20948;-74
2022/11/08 12:20:07;;;;;;;3.00;2.17;;;14.20;99.90;;;;;;5034867;28;20436;-74
2022/11/08 12:22:36;;;;;;;2.60;2.30;;;14.20;99.90;;;;;;5034083;28;20484;-75
2022/11/08 12:25:31;;;;;;;3.67;1.80;;;14.20;99.90;;;;;;5050900;28;20410;-73
2022/11/08 12:28:23;;;;;;;4.20;1.90;;;14.20;99.90;;;;;;4971457;28;20513;-75
2022/11/08 12:31:03;;;;;;;4.87;1.90;;;14.20;99.90;;;;;;4955515;28;20397;-75
2022/11/08 12:33:45;;;;;;;2.23;1.80;;;14.20;99.90;;;;;;4955069;28;20417;-75
2022/11/08 12:36:40;;;;;;;4.77;2.20;;;14.20;99.90;;;;;;4955951;28;20402;-75
2022/11/08 12:39:22;;;;;;;2.40;1.73;;;14.20;99.90;;;;;;4954839;28;20449;-75
2022/11/08 12:41:57;;;;;;;3.47;1.90;;;14.30;99.90;;;;;;4972671;28;20855;-75
2022/11/08 12:44:34;;;;;;;3.10;2.20;;;14.30;99.90;;;;;;4959239;28;20883;-75
2022/11/08 12:47:20;;;;;;;3.63;2.30;;;14.30;99.90;;;;;;4975255;28;20449;-76
2022/11/08 12:50:27;;;;;;;3.27;2.37;;;14.30;99.90;;;;;;4958419;28;20892;-74
2022/11/08 12:53:17;;;;;;;3.17;1.97;;;14.30;99.90;;;;;;4957764;28;20464;-74
2022/11/08 12:55:52;;;;;;;3.37;1.80;;;14.30;99.90;;;;;;4974035;28;20450;-74
2022/11/08 12:58:37;;;;;;;7.37;1.93;;;14.30;99.90;;;;;;4984489;28;20447;-74
2022/11/08 13:01:13;;;;;;;4.60;2.07;;;14.30;99.90;;;;;;5035025;28;20414;-74
2022/11/08 13:03:45;;;;;;;2.13;1.83;;;14.40;99.90;;;;;;5000645;28;20482;-74
2022/11/08 13:06:32;;;;;;;3.83;2.23;;;14.40;99.90;;;;;;5017379;28;20412;-74
2022/11/08 13:09:09;;;;;;;4.50;2.10;;;14.40;99.90;;;;;;5039314;28;20465;-74
2022/11/08 13:11:47;;;;;;;2.03;1.57;;;14.40;99.90;;;;;;5037719;28;20918;-74
2022/11/08 13:14:17;;;;;;;4.20;1.80;;;14.40;99.90;;;;;;5037708;28;20426;-74
2022/11/08 13:17:05;;;;;;;4.70;2.37;;;14.40;99.90;;;;;;5021250;28;20942;-74
2022/11/08 13:19:46;;;;;;;2.67;1.90;;;14.40;99.90;;;;;;5037296;28;20439;-74
2022/11/08 13:22:30;;;;;;;2.53;1.97;;;14.40;99.90;;;;;;5037906;28;20466;-74
2022/11/08 13:25:20;;;;;;;4.97;2.27;;;14.40;99.90;;;;;;5055280;28;20974;-74
2022/11/08 13:27:47;;;;;;;2.40;1.83;;;14.50;99.90;;;;;;5010674;28;20441;-74
2022/11/08 13:30:16;;;;;;;4.43;2.20;;;14.50;99.90;;;;;;5041710;28;20474;-74